Prairie Rose, North Dakota
Current Conditions -  °F | °C
As of 1:53 AM on Thursday 23 Oct 2014 (Local Time) from KFAR Reporting Station
Clear Clear  
Wind Chill: 44°   Ceiling: Unl
Heat Index: 48°   Visibility: 10mi
Dew Point: 46°   Wind: 8mph
Humidity: 93%   Direction: 210°SSW
Pressure: 29.89"   Gusts: NA
Location:  46.8079°N, 96.8643°W
Report Text: KFAR 230653Z 21007KT 10SM CLR 09/08 A2989 RMK AO2 SLP123 T00890078
Loading
Personal Weather Stations






























Interactive Weather Map New forecast layout! Learn more

10-Day Weather Forecast

Advertisements
Track Severe Weather on mobile